Timeline UpdatesTrip UpdatesNews PostsPvt PostsTravel TipsAdmin PostsConv PostsFollowed PostsChat RequestsBlog PostsPNR Posts

Disclaimer
Search
 
 
Wed Jul 30, 2014 08:28:51 ISTHomeTrainsΣChainsAtlasPNRForumGalleryNewsFAQTripsMembersLoginFeedback
No Recent News for this Train
Other Trains in the News **new
Latest...
.
Sat May 05, 2012 (10:37PM)
⇐ Return Journey: Train# 54803

54804/Ahmedabad Jodhpur Passenger (UnReserved)

Sep 11 2013 (10:59PM)
Change Departure Station:
Change Arrival Station:
Post a Train Travel TipPost a Train Travel Tip **new
Post a Comment/Question/Picture/VideoPost a Comment/Question/Picture/Video
Pantry/Catering
✕ NO Pantry Car
✕ NO Catering
RSA - Rake Sharing
3 different rounds (6 services) are run by the rakes of this train. 54803 Jodhpur (JU) - Ahemedabad (ADI) becomes 54806 for Ahmedabad - Ajmer (AII) which further goes to Jaipur (JP) as 54807. 54808 comes from Jaipur to Ajmer which further goes to Ahmedabad as 54805 and becomes...
Read more...
54804 from Ahmedabad to Jodhpur.
Rake/Coach Composition
Loco
WDM 2A ABR Shed.
News    PNR    Forum    Time-Table    Availability    Fare Chart    Map    Arr/Dep History    Trips    Gallery    ΣChains    X/O    Timeline    
Travel Time: 3h 45m    12 halts    Distance: 120 km    Avg Speed: 32 km/hr
Type: Passenger
Zone: NWR/North Western
Departs @ 16:50 (Avg 12m late)
Platform# ???
SMTWTFS
Banta Raghunathgarh/BGG 
Arrives @ 20:35 (Avg 11m late)
Platform# ???
SMTWTFS
Jodhpur Junction/JU 

12 halts. 13 intermediate Stations between Banta Raghunathgarh and Jodhpur Junction

Show ALL intermediate Stations  Show Old Time-Table

#CodeStation NameX/OArrivesAvgDepartsAvgHaltPFDay#KmSpeedElevZoneAddress
1ADIAhmedabad Junction (12)  -06:15+0--1-346.32851mWRAhmedabad, Gujarat
2SBTSabarmati Junction (3)  06:28+606:30+62m--1-340.27952mWRAhmedabad, Gujarat
3CLDBChandlodiya B  06:40+1106:42+112m--1-327.04455mWRAhmedabad, Gujarat
4KHDBKhodiyar  06:52+1406:54+262m--1-319.74764mWRKhodiyar, Gujarat
5KLLKalol (3)  07:08+2507:10+262m--1-308.84971mWRKalol, Gujarat
6JULJhulasan (3)  07:22+3307:24+362m--1-299.02677mWRMehsana, Gujarat
7DNWDangarwa  07:39+2907:41+302m--1-292.46683mWRJagudan, Gujarat
8UMNAmbliyasan  07:48+3307:50+382m--1-284.63490mWRMehsana, Gujarat
9JDNJagudan  08:04+3508:06+412m--1-276.81790mWRKochva Road, Gujarat
10MSHMahesana Junction (6)  08:40+1608:50+1210m--1-267.07495mWRMehsana, Gujarat
11BHUBhandu Motidau  08:59+1409:01+142m--1-255.97297mWRMahesana, Gujarat
12UJAUnjha  09:10+1209:12+122m--1-245.163116mWRUnjha, Gujarat
13KMLIKamli  09:19+1309:21+132m--1-237.863126mWRChhapi, Gujarat
14SIDSiddhpur  09:27+1509:29+152m--1-231.442136mWRState Highway 41, Gujarat
15DRWDharewada  09:37+1409:39+142m--1-225.957145mWRUnjha, Gujarat
16CHPChhapiX  09:47+1309:49+132m--1-218.259169mWRBanaskantha, Gujarat
17UMUmardashiXO  09:57+1309:59+132m--1-210.321187mWRChitrasani, Gujarat
18PNUPalanpur Junction (5)XO  10:23+410:28+75m--1-202.045216mWRPalanpur, Gujarat
19KRJDKarjoda  10:36+1810:37+191m--1-195.954234mNWRChhapi, Gujarat
20CTTChitrasaniO  10:43+2010:44+211m--1-190.544225mNWRChitrasani, Gujarat
21JTYJethiXO  10:50+2210:52+242m--1-186.153212mNWRBANASKANTHA, Gujarat
22IQGIqbal Gadh  10:59+2511:00+291m--1-180.064209mNWRBanaskantha, Gujarat
23SZASarotra RoadX  11:07+2711:08+301m--1-172.554216mNWRSarotra, Gujarat
24SIMShri AmirgadhXO  11:14+3411:15+361m--1-167.156229mNWRAmirgadh, Gujarat
25MAAMavalX  11:24+3711:25+521m--1-158.822245mNWRNational Highway 14, Rajasthan
26ABRAbu Road (3)  11:50+3512:15+3925m11-149.421264mNWRSirohi Dist, Rajasthan
27MXOMorthala  12:24+4412:25+461m--1-146.344267mNWRNH 14, Rajasthan
28KWIKivarli  12:33+4612:34+501m--1-140.443281mNWRShri Amirgadh, Rajasthan
29BMNBhimanaO  12:45+4912:46+491m--1-132.657313mNWRAbu Road, Rajasthan
30SRPJSwarupGanj  12:55+5112:56+521m--1-124.024334mNWRSirohi Road, Rajasthan
31BNSBanas  13:17+4013:18+501m--1-115.655347mNWRSirohi Road, Rajasthan
32SOHSirohi Road (2)XO  13:29+5413:30+561m--1-105.540369mNWRPindwara, Rajasthan
33KVJKeshavganjX  13:42+5013:43+1:011m--1-97.611393mNWRJawai Bandh, Rajasthan
34NANANana  14:34+2214:35+261m--1-88.611355mNWRNana, Rajasthan
35KTRKothar  15:09+515:10+81m--1-82.454346mNWRPali, Rajasthan
36MOIMori Bera  15:17+815:18+121m--1-76.163323mNWRNana, Rajasthan
37JWBJawai Bandh  15:27+1315:28+151m--1-66.755292mNWRPali, Rajasthan
38BRLYBiroliyaX  15:37+1415:38+151m--1-58.554294mNWRBiroliya Rd, Rajasthan
39FAFalna (2)  15:47+1315:50+123m--1-50.569282mNWRFalna, Rajasthan
40KZQKhimel  15:57+1515:58+161m--1-42.455277mNWRJawai Bandh, Rajasthan
41RANIRani  16:05+1316:06+131m--1-36.154280mNWRRania, Rajasthan
42BGPRBhagwanpura  16:15+1416:16+141m--1-28.057276mNWRSomesar, Rajasthan
43JALJawali  16:24+1816:25+181m--1-20.463270mNWRRania, Rajasthan
44SOSSomesarX  16:33+1316:34+141m--1-12.052269mNWRSomesar, Rajasthan
45BWABhinwaliya  16:41+1316:42+131m--1-6.051268mNWRPindwara, Rajasthan
46BGG»Banta Raghunathgarh»X  16:49+1216:50+121m--10.055266mNWRSomesar, Rajasthan
47AUWAAuwa (2)  16:58+1416:59+151m--17.320265mNWRSomesar, Rajasthan
48MJMarwar Junction (4)  17:25+517:35+410m--116.070267mNWRMarwar Junction, Rajasthan
49RKZRajkiawasX  17:44+2317:46+222m--126.569245mNWRMarwar, Rajasthan
50BOMBomadra  17:54+2317:56+272m--135.761234mNWRPali Marwar, Rajasthan
51PMYPali Marwar (2)  18:07+3518:09+372m--146.957221mNWRPali, Rajasthan
52KAIKairla  18:25+2618:27+262m--162.072213mNWRPali, Rajasthan
53RTRohat  18:38+2618:40+272m--175.260183mNWRSH 64, Rajasthan
54LUNILuni Junction (3)X  18:53+2518:56+333m--188.164180mNWRLuni, Rajasthan
55HWTHanwantX  19:02+3619:04+382m--194.643185mNWRBasni, Rajasthan
56SZSalawasO  19:17+3519:19+442m--1103.963193mNWRLuni, Rajasthan
57BANEBasni  19:28+4419:30+462m--1113.36219mNWRJodhpur, Rajasthan
58BGKTBhagat Ki Kothi (3)  20:03+1520:05+202m--1116.47229mNWRJodhpur, Rajasthan
59JU•Jodhpur Junction (5)•  20:35+11---1120.0-241mNWRJodhpur, Rajasthan
Scroll to Top
Scroll to Bottom